Time;durP1;ratioP1;P1;durP2;ratioP2;P2;SDS_P1;SDS_P2;PMS_P1;PMS_P2;Temp;Humidity;BMP_temperature;BMP_pressure;BME280_temperature;BME280_humidity;BME280_pressure;Samples;Min_cycle;Max_cycle;Signal;HPM_P1;HPM_P2
2023/12/02 00:01:41;;;;;;;24.83;14.52;;;0.80;99.90;;;0.88;60.18;99870.94;4981988;28;20039;-82
2023/12/02 00:04:09;;;;;;;26.00;15.38;;;0.70;99.90;;;0.90;61.08;99872.41;4976396;28;20051;-81
2023/12/02 00:06:37;;;;;;;24.75;14.52;;;0.70;99.90;;;0.98;61.17;99867.19;4946757;29;20146;-82
2023/12/02 00:09:05;;;;;;;25.42;14.07;;;0.70;99.90;;;1.07;60.77;99872.41;4931398;29;20058;-82
2023/12/02 00:11:33;;;;;;;24.30;13.77;;;0.80;99.90;;;1.03;60.39;99862.25;4962730;28;20047;-81
2023/12/02 00:14:01;;;;;;;24.80;14.65;;;0.80;99.90;;;1.01;60.52;99866.84;4942003;28;20077;-82
2023/12/02 00:16:30;;;;;;;27.67;15.40;;;0.80;99.90;;;1.06;60.33;99865.53;4982205;28;20109;-82
2023/12/02 00:18:57;;;;;;;25.45;15.10;;;0.80;99.90;;;1.00;59.93;99861.75;4968288;28;20443;-82
2023/12/02 00:21:25;;;;;;;26.92;15.07;;;0.80;99.90;;;1.03;60.59;99864.06;5015851;28;20054;-82
2023/12/02 00:23:52;;;;;;;25.38;15.63;;;0.80;99.90;;;1.03;60.29;99869.31;5023997;28;20061;-82
2023/12/02 00:26:21;;;;;;;27.00;15.90;;;0.80;99.90;;;1.06;60.18;99863.72;5006583;28;20046;-83
2023/12/02 00:28:57;;;;;;;29.25;16.45;;;0.80;99.90;;;0.94;60.38;99865.88;5023300;28;20049;-83
2023/12/02 00:31:25;;;;;;;29.58;16.40;;;0.80;99.90;;;1.01;60.59;99868.63;5006155;28;20053;-83
2023/12/02 00:33:56;;;;;;;30.85;18.00;;;0.80;99.90;;;1.07;60.88;99865.34;5023838;28;20069;-83
2023/12/02 00:36:23;;;;;;;29.67;17.05;;;0.80;99.90;;;1.14;61.32;99866.34;5022409;28;20046;-83
2023/12/02 00:38:52;;;;;;;29.45;16.50;;;0.90;99.90;;;1.18;61.33;99865.03;4972728;28;20053;-83
2023/12/02 00:41:20;;;;;;;26.63;15.95;;;0.90;99.90;;;1.23;61.26;99867.16;5006134;28;20054;-83
2023/12/02 00:43:48;;;;;;;25.70;14.85;;;0.90;99.90;;;1.18;60.43;99872.09;4989531;28;20467;-83
2023/12/02 00:46:16;;;;;;;27.70;15.85;;;0.90;99.90;;;1.13;59.99;99871.78;4988782;28;20056;-83
2023/12/02 00:48:43;;;;;;;25.90;15.07;;;0.90;99.90;;;1.02;60.21;99879.00;5005264;28;20480;-83
2023/12/02 00:51:12;;;;;;;26.58;15.73;;;0.80;99.90;;;0.96;59.80;99879.63;5005326;28;20457;-83
2023/12/02 00:53:39;;;;;;;26.05;15.02;;;0.70;99.90;;;0.95;60.50;99874.56;5023126;28;20054;-83
2023/12/02 00:56:08;;;;;;;28.00;16.33;;;0.70;99.90;;;1.01;60.51;99874.72;5005775;28;20046;-83
2023/12/02 00:58:37;;;;;;;28.02;16.08;;;0.70;99.90;;;1.09;60.84;99883.59;5005048;28;20046;-83
2023/12/02 01:01:05;;;;;;;25.25;15.40;;;0.80;99.90;;;1.06;60.46;99876.03;5022328;28;20065;-83
2023/12/02 01:03:33;;;;;;;26.17;16.02;;;0.80;99.90;;;1.13;60.56;99879.66;5023466;28;20053;-83
2023/12/02 01:06:00;;;;;;;24.95;15.23;;;0.90;99.90;;;1.14;59.67;99882.09;5005350;28;20049;-83
2023/12/02 01:08:29;;;;;;;26.88;15.23;;;0.90;99.90;;;1.09;59.97;99878.34;5023414;28;20046;-83
2023/12/02 01:10:57;;;;;;;23.42;14.85;;;0.90;99.90;;;0.98;59.49;99877.69;5005423;28;20042;-83
2023/12/02 01:13:25;;;;;;;24.23;14.23;;;0.80;99.90;;;0.88;60.00;99886.66;5006055;28;20089;-83
2023/12/02 01:15:52;;;;;;;25.70;14.80;;;0.70;99.90;;;0.98;60.45;99888.19;5005958;28;20493;-83
2023/12/02 01:18:20;;;;;;;27.08;15.30;;;0.70;99.90;;;1.02;60.12;99883.41;5022225;28;20046;-83
2023/12/02 01:20:48;;;;;;;24.85;14.88;;;0.80;99.90;;;0.96;59.70;99882.25;5005679;28;20030;-82
2023/12/02 01:23:16;;;;;;;23.48;14.68;;;0.70;99.90;;;0.96;59.96;99881.44;5023873;28;20048;-83
2023/12/02 01:25:45;;;;;;;23.35;13.63;;;0.70;99.90;;;0.90;59.73;99890.78;5005913;28;20133;-83
2023/12/02 01:28:13;;;;;;;23.02;13.25;;;0.70;99.90;;;0.89;59.49;99893.59;4989679;28;20049;-83
2023/12/02 01:30:40;;;;;;;20.23;12.60;;;0.70;99.90;;;0.92;60.12;99899.31;5025113;28;20417;-83
2023/12/02 01:33:07;;;;;;;21.35;13.00;;;0.70;99.90;;;0.91;60.05;99896.84;5009218;28;20042;-83
2023/12/02 01:35:35;;;;;;;23.58;13.63;;;0.70;99.90;;;0.95;60.30;99892.94;5027632;28;20050;-83
2023/12/02 01:38:02;;;;;;;21.33;12.77;;;0.70;99.90;;;0.93;59.92;99900.16;5009260;28;20497;-83
2023/12/02 01:40:30;;;;;;;21.35;13.00;;;0.60;99.90;;;0.90;59.81;99893.41;5009689;28;20049;-83
2023/12/02 01:42:59;;;;;;;24.40;13.45;;;0.60;99.90;;;0.83;59.89;99894.22;4992481;28;20057;-83
2023/12/02 01:45:27;;;;;;;21.15;13.25;;;0.60;99.90;;;0.90;60.29;99896.03;5009046;28;20046;-83
2023/12/02 01:47:55;;;;;;;20.75;12.63;;;0.70;99.90;;;0.98;60.75;99903.94;5008964;28;20506;-83
2023/12/02 01:50:23;;;;;;;21.95;13.23;;;0.70;99.90;;;0.99;60.41;99894.25;5009083;28;20050;-83
2023/12/02 01:52:50;;;;;;;23.85;13.95;;;0.70;99.90;;;0.96;59.98;99905.06;5025547;28;20124;-83
2023/12/02 01:55:18;;;;;;;18.90;11.13;;;0.60;99.90;;;0.81;59.88;99902.25;5027783;28;20046;-83
2023/12/02 01:57:48;;;;;;;21.30;12.32;;;0.60;99.90;;;0.75;60.17;99905.53;5009068;28;20056;-83
2023/12/02 02:00:18;;;;;;;24.40;13.98;;;0.50;99.90;;;0.70;59.42;99910.44;4993814;28;20073;-83
2023/12/02 02:02:45;;;;;;;23.48;13.68;;;0.50;99.90;;;0.71;60.06;99912.09;5008680;28;20072;-82
2023/12/02 02:05:13;;;;;;;25.15;13.63;;;0.50;99.90;;;0.82;60.29;99913.56;5026810;28;20046;-83
2023/12/02 02:07:40;;;;;;;26.40;14.82;;;0.60;99.90;;;0.84;60.14;99919.50;5026513;28;20057;-83
2023/12/02 02:10:09;;;;;;;26.30;15.27;;;0.60;99.90;;;0.83;60.01;99916.06;5008837;28;20057;-83
2023/12/02 02:12:37;;;;;;;25.70;14.75;;;0.60;99.90;;;0.85;60.12;99921.97;5026474;28;20046;-83
2023/12/02 02:15:06;;;;;;;24.65;14.05;;;0.60;99.90;;;0.89;59.65;99919.84;5010003;28;20153;-83
2023/12/02 02:17:36;;;;;;;25.33;14.88;;;0.60;99.90;;;0.87;59.64;99917.34;5009580;28;20096;-83
2023/12/02 02:20:06;;;;;;;25.85;14.38;;;0.60;99.90;;;0.78;59.06;99918.31;5027176;28;20052;-83
2023/12/02 02:22:37;;;;;;;26.70;14.63;;;0.60;99.90;;;0.76;60.14;99925.53;5010351;28;20069;-83
2023/12/02 02:25:05;;;;;;;21.20;13.40;;;0.50;99.90;;;0.80;59.68;99931.31;5027004;28;20045;-83
2023/12/02 02:27:35;;;;;;;25.88;14.27;;;0.50;99.90;;;0.83;59.50;99916.06;5010452;28;20050;-83
2023/12/02 02:30:04;;;;;;;27.00;14.57;;;0.60;99.90;;;0.75;59.25;99919.47;5027550;28;20042;-83
2023/12/02 02:32:31;;;;;;;27.42;14.38;;;0.60;99.90;;;0.75;59.64;99923.91;4992810;28;20113;-83
2023/12/02 02:34:59;;;;;;;25.95;14.63;;;0.50;99.90;;;0.77;59.67;99924.56;5009388;28;20049;-83
2023/12/02 02:37:26;;;;;;;26.23;15.43;;;0.60;99.90;;;0.81;59.83;99928.50;5026464;28;20049;-83
2023/12/02 02:39:55;;;;;;;28.33;16.17;;;0.60;99.90;;;0.81;59.62;99925.88;5009961;28;20573;-83
2023/12/02 02:42:23;;;;;;;28.20;16.10;;;0.60;99.90;;;0.71;59.47;99927.84;4992746;28;20057;-83
2023/12/02 02:44:50;;;;;;;28.17;15.70;;;0.50;99.90;;;0.74;59.50;99932.78;5025731;28;20050;-83
2023/12/02 02:47:18;;;;;;;29.48;15.32;;;0.50;99.90;;;0.75;60.00;99926.53;5010143;28;20050;-83
2023/12/02 02:49:45;;;;;;;25.70;14.25;;;0.60;99.90;;;0.83;59.10;99923.94;4993596;28;20042;-83
2023/12/02 02:52:13;;;;;;;25.75;15.10;;;0.60;99.90;;;0.80;59.12;99931.31;5009864;28;20051;-83
2023/12/02 02:54:42;;;;;;;26.08;14.68;;;0.60;99.90;;;0.79;58.88;99920.00;5027226;28;20049;-83
2023/12/02 02:57:11;;;;;;;25.60;14.55;;;0.60;99.90;;;0.75;59.28;99934.41;5009161;28;20060;-83
2023/12/02 02:59:38;;;;;;;28.08;14.88;;;0.60;99.90;;;0.81;59.50;99933.75;5026714;28;20064;-83
2023/12/02 03:02:06;;;;;;;28.65;14.85;;;0.60;99.90;;;0.89;59.95;99927.72;5009400;28;20505;-83
2023/12/02 03:04:33;;;;;;;30.17;14.60;;;0.70;99.90;;;0.92;59.66;99925.56;5009930;28;20046;-83
2023/12/02 03:07:00;;;;;;;26.10;13.55;;;0.70;99.90;;;0.95;59.94;99925.25;5010152;28;20061;-83
2023/12/02 03:09:31;;;;;;;22.42;12.40;;;0.70;99.90;;;1.02;60.18;99938.53;5027662;28;20133;-83
2023/12/02 03:11:58;;;;;;;23.37;13.13;;;0.80;99.90;;;1.04;60.09;99936.59;5028447;28;20050;-83
2023/12/02 03:14:27;;;;;;;22.58;12.10;;;0.80;99.90;;;1.05;60.02;99932.97;5010220;28;20297;-83
2023/12/02 03:16:54;;;;;;;23.85;13.05;;;0.80;99.90;;;1.03;59.66;99933.16;5029218;28;20038;-83
2023/12/02 03:19:25;;;;;;;22.40;12.27;;;0.80;99.90;;;1.03;59.65;99937.56;4979845;28;20041;-83
2023/12/02 03:21:52;;;;;;;23.58;12.02;;;0.80;99.90;;;0.95;59.63;99938.38;5009768;28;20737;-83
2023/12/02 03:24:20;;;;;;;21.58;12.32;;;0.70;99.90;;;0.94;59.56;99934.13;5028217;28;20468;-83
2023/12/02 03:26:48;;;;;;;24.80;12.63;;;0.70;99.90;;;1.01;59.92;99931.66;5027961;28;20041;-83
2023/12/02 03:29:15;;;;;;;22.38;12.07;;;0.70;99.90;;;0.99;59.99;99933.63;5009550;28;20038;-83
2023/12/02 03:31:44;;;;;;;22.08;11.77;;;0.80;99.90;;;1.03;59.92;99938.41;5029167;28;20046;-83
2023/12/02 03:34:13;;;;;;;20.33;11.30;;;0.80;99.90;;;1.05;60.30;99935.59;4995931;28;20140;-83
2023/12/02 03:36:40;;;;;;;21.55;11.43;;;0.80;99.90;;;1.10;59.98;99937.72;5029110;28;20058;-83
2023/12/02 03:39:12;;;;;;;22.40;12.02;;;0.90;99.90;;;1.04;59.21;99944.47;5010606;28;20490;-83
2023/12/02 03:41:41;;;;;;;24.85;13.25;;;0.80;99.90;;;1.03;59.01;99940.19;5003060;28;20137;-83
2023/12/02 03:44:10;;;;;;;28.10;12.93;;;0.80;99.90;;;0.97;58.69;99946.91;5011057;28;20061;-83
2023/12/02 03:46:39;;;;;;;28.33;14.52;;;0.90;99.90;;;0.88;58.34;99945.28;5025303;28;20050;-83
2023/12/02 03:49:08;;;;;;;24.38;13.05;;;0.60;99.90;;;0.86;58.41;99955.09;5007488;28;20037;-83
2023/12/02 03:51:35;;;;;;;26.45;13.77;;;0.60;99.90;;;0.86;59.12;99947.22;5024509;28;20050;-83
2023/12/02 03:54:03;;;;;;;23.45;13.50;;;0.70;99.90;;;0.80;58.92;99940.00;5006991;28;20085;-83
2023/12/02 03:56:31;;;;;;;28.73;14.88;;;0.60;99.90;;;0.87;59.25;99935.72;5002389;28;20046;-83
2023/12/02 03:58:58;;;;;;;29.50;14.70;;;0.60;99.90;;;0.83;59.42;99942.31;5003118;28;20046;-83
2023/12/02 04:01:26;;;;;;;28.25;14.63;;;0.60;99.90;;;0.86;59.41;99952.47;4986490;28;20494;-83
2023/12/02 04:03:55;;;;;;;25.85;14.10;;;0.60;99.90;;;0.91;59.76;99957.22;5010810;28;20046;-83
2023/12/02 04:06:24;;;;;;;24.30;13.43;;;0.70;99.90;;;0.95;59.68;99958.56;5006725;28;20066;-83
2023/12/02 04:08:52;;;;;;;23.70;12.85;;;0.70;99.90;;;0.99;59.89;99957.25;5005269;28;20505;-83
2023/12/02 04:11:19;;;;;;;22.67;12.40;;;0.70;99.90;;;1.03;60.29;99954.16;5004973;28;20049;-83
2023/12/02 04:13:47;;;;;;;23.00;12.98;;;0.80;99.90;;;1.07;60.31;99959.06;5006150;28;20073;-83
2023/12/02 04:16:14;;;;;;;21.77;12.23;;;0.80;99.90;;;1.01;60.17;99966.59;5023726;28;20080;-83
2023/12/02 04:18:41;;;;;;;22.40;13.38;;;0.80;99.90;;;0.98;59.37;99966.13;5023319;28;20044;-83
2023/12/02 04:21:09;;;;;;;22.95;12.27;;;0.70;99.90;;;1.00;60.03;99974.66;5006705;28;20170;-83
2023/12/02 04:23:39;;;;;;;23.08;12.57;;;0.70;99.90;;;1.02;60.10;99984.03;5021915;28;20111;-83
2023/12/02 04:26:07;;;;;;;23.17;11.95;;;0.70;99.90;;;1.01;59.80;99992.84;5022365;28;20046;-83
2023/12/02 04:28:35;;;;;;;24.63;13.52;;;0.70;99.90;;;1.03;60.41;99990.09;5005292;28;20141;-83
2023/12/02 04:31:03;;;;;;;27.90;14.60;;;0.70;99.90;;;1.06;60.46;99995.00;5005036;28;20128;-83
2023/12/02 04:33:30;;;;;;;28.00;13.77;;;0.80;99.90;;;1.09;60.30;99989.44;5005615;28;20050;-83
2023/12/02 04:35:58;;;;;;;30.15;14.95;;;0.80;99.90;;;1.08;59.86;99989.59;5022719;28;20045;-83
2023/12/02 04:38:25;;;;;;;27.30;14.25;;;0.80;99.90;;;0.95;58.87;99998.75;5005011;28;20107;-83
2023/12/02 04:40:54;;;;;;;26.95;14.25;;;0.70;99.90;;;0.85;59.22;99998.06;5023490;28;20073;-83
2023/12/02 04:43:22;;;;;;;30.45;15.45;;;0.60;99.90;;;0.91;59.87;99986.94;5023672;28;20057;-83
2023/12/02 04:45:50;;;;;;;26.60;14.75;;;0.70;99.90;;;0.86;58.75;99989.22;5005713;28;20116;-83
2023/12/02 04:48:18;;;;;;;25.52;13.40;;;0.60;99.90;;;0.86;59.44;99988.41;4988981;28;20102;-83
2023/12/02 04:50:46;;;;;;;28.67;15.02;;;0.80;99.90;;;0.86;59.68;99997.09;4988427;28;20066;-83
2023/12/02 04:53:13;;;;;;;25.33;13.35;;;0.60;99.90;;;0.77;59.33;99993.63;4988389;28;20453;-83
2023/12/02 04:55:41;;;;;;;25.33;12.70;;;0.50;99.90;;;0.80;59.74;100004.78;5005082;28;20046;-83
2023/12/02 04:58:10;;;;;;;22.30;11.60;;;0.50;99.90;;;0.71;59.79;99996.88;5004844;28;20045;-83
2023/12/02 05:00:38;;;;;;;22.52;12.32;;;0.50;99.90;;;0.79;60.11;100003.16;5022688;28;20042;-83
2023/12/02 05:03:05;;;;;;;21.60;11.52;;;0.50;99.90;;;0.85;60.27;100016.44;5004291;28;20049;-83
2023/12/02 05:05:33;;;;;;;20.10;11.48;;;0.60;99.90;;;0.78;59.31;100015.44;5004845;28;20050;-83
2023/12/02 05:08:00;;;;;;;21.55;11.20;;;0.50;99.90;;;0.80;59.89;100015.28;5023122;28;20069;-83
2023/12/02 05:10:28;;;;;;;22.35;12.30;;;0.50;99.90;;;0.84;59.96;100017.44;5022688;28;20433;-83
2023/12/02 05:12:55;;;;;;;21.23;11.43;;;0.60;99.90;;;0.89;59.91;100015.16;5004424;28;20515;-83
2023/12/02 05:15:25;;;;;;;21.15;11.27;;;0.60;99.90;;;0.84;59.18;100017.44;5021527;28;20050;-83
2023/12/02 05:17:52;;;;;;;20.83;11.45;;;0.60;99.90;;;0.75;59.57;100023.63;5022312;28;20077;-83
2023/12/02 05:20:23;;;;;;;22.23;12.07;;;0.50;99.90;;;0.64;59.40;100022.13;5004776;28;20144;-85
2023/12/02 05:22:50;;;;;;;21.92;11.50;;;0.40;99.90;;;0.71;60.10;100028.38;5019993;28;20053;-85
2023/12/02 05:25:18;;;;;;;21.80;11.32;;;0.50;99.90;;;0.76;59.55;100030.53;5001210;28;20420;-85
2023/12/02 05:27:46;;;;;;;19.35;11.20;;;0.50;99.90;;;0.80;60.13;100036.28;4986070;28;20054;-84
2023/12/02 05:30:16;;;;;;;21.52;11.30;;;0.50;99.90;;;0.79;60.71;100040.72;5002407;28;20117;-85
2023/12/02 05:32:44;;;;;;;22.60;12.15;;;0.50;99.90;;;0.83;60.27;100047.28;5020619;28;20069;-85
2023/12/02 05:35:12;;;;;;;20.38;11.98;;;0.50;99.90;;;0.86;60.26;100041.72;5001994;28;20052;-85
2023/12/02 05:37:40;;;;;;;20.20;11.32;;;0.60;99.90;;;0.90;60.09;100044.84;5002117;28;20045;-85
2023/12/02 05:40:12;;;;;;;21.45;11.57;;;0.60;99.90;;;0.91;59.99;100041.22;5018295;28;20494;-85
2023/12/02 05:42:39;;;;;;;22.02;11.55;;;0.60;99.90;;;0.96;60.61;100046.81;5019963;28;20046;-85
2023/12/02 05:45:09;;;;;;;23.15;12.40;;;0.70;99.90;;;0.89;59.64;100051.09;5019581;28;20042;-85
2023/12/02 05:47:36;;;;;;;20.95;11.30;;;0.60;99.90;;;0.91;59.78;100047.31;4996896;28;20049;-86
2023/12/02 05:50:07;;;;;;;22.55;12.02;;;0.60;99.90;;;0.90;59.97;100044.84;5001622;28;20505;-84
2023/12/02 05:52:34;;;;;;;21.33;11.30;;;0.60;99.90;;;0.91;60.21;100049.94;4986487;28;20092;-84
2023/12/02 05:55:02;;;;;;;22.58;11.93;;;0.60;99.90;;;0.95;60.53;100045.19;5017184;28;20050;-86
2023/12/02 05:57:29;;;;;;;22.27;11.80;;;0.60;99.90;;;0.98;60.21;100043.06;5018893;28;20132;-84
2023/12/02 05:59:57;;;;;;;24.52;13.18;;;0.70;99.90;;;0.98;60.13;100048.31;5001251;28;20456;-85
2023/12/02 06:02:25;;;;;;;24.00;14.40;;;0.70;99.90;;;0.96;60.14;100047.66;5018996;28;20528;-85
2023/12/02 06:04:53;;;;;;;25.05;14.27;;;0.70;99.90;;;1.01;60.44;100055.88;5002120;28;20046;-84
2023/12/02 06:07:22;;;;;;;24.45;12.80;;;0.70;99.90;;;0.99;60.43;100057.84;4982011;28;20142;-87
2023/12/02 06:09:49;;;;;;;24.00;12.13;;;0.70;99.90;;;0.97;60.57;100059.78;4999824;28;20104;-83
2023/12/02 06:12:17;;;;;;;20.75;11.15;;;0.60;99.90;;;1.00;60.30;100056.03;5002507;28;20056;-83
2023/12/02 06:14:45;;;;;;;21.88;12.23;;;0.70;99.90;;;1.00;59.92;100058.66;5019787;28;20109;-83
2023/12/02 06:17:13;;;;;;;23.15;12.07;;;0.70;99.90;;;0.97;60.17;100056.34;5020946;28;20069;-83
2023/12/02 06:19:40;;;;;;;24.58;12.80;;;0.60;99.90;;;0.94;59.53;100060.13;5022584;28;20416;-83
2023/12/02 06:22:08;;;;;;;23.40;12.52;;;0.70;99.90;;;0.94;59.89;100059.31;5024453;28;20068;-83
2023/12/02 06:24:37;;;;;;;22.63;13.05;;;0.60;99.90;;;0.96;59.97;100063.41;5024042;28;20057;-83
2023/12/02 06:27:05;;;;;;;23.83;12.60;;;0.70;99.90;;;0.99;60.05;100060.47;5024715;28;20038;-85
2023/12/02 06:29:32;;;;;;;24.13;12.23;;;0.70;99.90;;;1.00;60.61;100058.66;5024489;28;20038;-83
2023/12/02 06:31:59;;;;;;;24.25;12.43;;;0.70;99.90;;;0.97;59.80;100058.97;5024923;28;20045;-82
2023/12/02 06:34:27;;;;;;;25.33;12.77;;;0.60;99.90;;;0.88;59.79;100071.28;5007189;28;20057;-83
2023/12/02 06:36:55;;;;;;;24.90;12.75;;;0.60;99.90;;;0.90;60.11;100068.47;5023923;28;20042;-84
2023/12/02 06:39:23;;;;;;;22.27;12.10;;;0.50;99.90;;;0.89;60.38;100079.97;4999103;28;20054;-87
2023/12/02 06:41:52;;;;;;;22.58;12.13;;;0.60;99.90;;;0.87;60.17;100081.91;5016659;28;20042;-86
2023/12/02 06:44:19;;;;;;;22.10;11.90;;;0.50;99.90;;;0.85;60.43;100079.44;5016838;28;20073;-86
2023/12/02 06:46:51;;;;;;;22.15;11.93;;;0.50;99.90;;;0.89;60.88;100083.41;5000048;28;20038;-87
2023/12/02 06:49:19;;;;;;;22.45;11.90;;;0.60;99.90;;;0.89;60.74;100088.66;5016632;28;20561;-88
2023/12/02 06:51:51;;;;;;;23.25;12.38;;;0.50;99.90;;;0.91;60.60;100093.75;5018607;28;20053;-87
2023/12/02 06:54:18;;;;;;;26.65;12.85;;;0.50;99.90;;;0.93;60.58;100097.03;4999675;28;20057;-87
2023/12/02 06:56:50;;;;;;;22.75;12.45;;;0.60;99.90;;;0.95;60.41;100102.94;4999036;28;20124;-87
2023/12/02 06:59:18;;;;;;;22.60;12.25;;;0.70;99.90;;;0.98;60.56;100103.47;5016439;28;20050;-87
2023/12/02 07:01:46;;;;;;;24.98;13.13;;;0.70;99.90;;;0.97;60.59;100103.59;5003582;28;20140;-86
2023/12/02 07:04:14;;;;;;;23.45;11.45;;;0.70;99.90;;;1.00;60.54;100103.28;5026778;28;20050;-86
2023/12/02 07:06:41;;;;;;;24.63;11.02;;;0.70;99.90;;;1.01;60.50;100116.25;5009378;28;20052;-86
2023/12/02 07:09:12;;;;;;;23.13;11.97;;;0.70;99.90;;;0.93;59.98;100111.00;5010696;28;20050;-86
2023/12/02 07:11:40;;;;;;;22.73;12.40;;;0.70;99.90;;;0.97;60.21;100122.78;5028504;28;20783;-86
2023/12/02 07:14:10;;;;;;;22.23;11.40;;;0.70;99.90;;;0.93;59.73;100126.75;5027916;28;20054;-86
2023/12/02 07:16:37;;;;;;;25.10;12.18;;;0.60;99.90;;;0.93;60.46;100133.78;5023920;28;20050;-86
2023/12/02 07:19:06;;;;;;;25.70;12.55;;;0.70;99.90;;;0.91;60.16;100135.75;5020972;28;20414;-87
2023/12/02 07:21:34;;;;;;;22.38;11.77;;;0.60;99.90;;;0.95;60.60;100137.06;4999150;28;20046;-86
2023/12/02 07:24:03;;;;;;;21.05;11.57;;;0.70;99.90;;;1.01;60.38;100139.88;5003483;28;20053;-84
2023/12/02 07:26:30;;;;;;;21.23;11.93;;;0.70;99.90;;;1.01;60.18;100153.00;5004142;28;20505;-84
2023/12/02 07:28:58;;;;;;;22.33;11.98;;;0.70;99.90;;;0.98;60.23;100155.97;5005414;28;20048;-84
2023/12/02 07:31:27;;;;;;;23.30;12.05;;;0.70;99.90;;;1.02;60.36;100157.31;5022050;28;20065;-84
2023/12/02 07:33:59;;;;;;;21.80;11.35;;;0.90;99.90;;;1.05;60.22;100158.78;4986421;28;20064;-86
2023/12/02 07:36:27;;;;;;;22.88;11.90;;;0.70;99.90;;;1.02;59.92;100164.34;5003358;28;20038;-85
2023/12/02 07:38:54;;;;;;;24.40;12.73;;;0.70;99.90;;;0.93;59.66;100163.50;5006325;28;20049;-85
2023/12/02 07:41:22;;;;;;;20.38;11.55;;;0.60;99.90;;;0.95;59.59;100164.16;5005076;28;20509;-84
2023/12/02 07:43:52;;;;;;;20.48;11.35;;;0.60;99.90;;;0.97;59.53;100159.56;5022217;28;20038;-84
2023/12/02 07:46:19;;;;;;;26.17;11.70;;;0.60;99.90;;;0.98;59.55;100163.03;5041136;28;20073;-86
2023/12/02 07:48:49;;;;;;;21.88;12.10;;;0.70;99.90;;;0.99;59.82;100160.25;5019106;28;20428;-86
2023/12/02 07:51:16;;;;;;;21.23;11.05;;;0.70;99.90;;;0.99;59.68;100162.88;5016497;28;20513;-87
2023/12/02 07:53:44;;;;;;;20.33;11.15;;;0.70;99.90;;;0.98;59.83;100166.47;5018040;28;20046;-87
2023/12/02 07:56:13;;;;;;;25.85;11.95;;;0.70;99.90;;;0.97;59.84;100170.06;5000028;28;20050;-86
2023/12/02 07:58:41;;;;;;;23.58;11.85;;;0.70;99.90;;;0.95;59.89;100172.03;5000607;28;20050;-87
2023/12/02 08:01:08;;;;;;;22.15;11.70;;;0.60;99.90;;;0.97;59.76;100172.69;5002130;28;20037;-86
2023/12/02 08:03:36;;;;;;;23.42;11.43;;;0.60;99.90;;;1.01;59.77;100170.56;4998873;28;20115;-87
2023/12/02 08:06:06;;;;;;;21.67;11.35;;;0.70;99.90;;;1.06;59.64;100180.59;4998615;28;20096;-87
2023/12/02 08:08:34;;;;;;;22.42;11.52;;;0.70;99.90;;;1.06;59.66;100172.72;4998796;28;20049;-87
2023/12/02 08:11:03;;;;;;;21.17;11.85;;;0.70;99.90;;;1.06;59.65;100178.81;5007739;28;20073;-87
2023/12/02 08:13:37;;;;;;;20.83;11.50;;;0.80;99.90;;;1.08;59.56;100186.53;5001057;28;20046;-87
2023/12/02 08:16:06;;;;;;;21.13;11.77;;;0.70;99.90;;;1.07;60.06;100190.94;5005552;28;20042;-87
2023/12/02 08:18:33;;;;;;;20.08;11.35;;;0.80;99.90;;;1.10;60.46;100189.81;5018542;28;20049;-86
2023/12/02 08:21:06;;;;;;;20.88;11.57;;;0.80;99.90;;;1.12;60.36;100191.28;5023887;28;20034;-87
2023/12/02 08:23:33;;;;;;;18.65;10.48;;;0.80;99.90;;;1.10;59.76;100197.69;5035352;28;20163;-87
2023/12/02 08:26:01;;;;;;;19.42;11.10;;;0.80;99.90;;;1.09;59.69;100202.13;5036044;28;20041;-86
2023/12/02 08:28:29;;;;;;;19.77;10.27;;;0.80;99.90;;;1.07;59.48;100205.88;5004157;28;20122;-86
2023/12/02 08:30:57;;;;;;;20.15;10.80;;;0.80;99.90;;;1.05;59.22;100199.97;5030756;28;20042;-85
2023/12/02 08:33:24;;;;;;;19.42;10.65;;;0.70;99.90;;;1.06;59.39;100201.63;5002266;28;20042;-86
2023/12/02 08:35:52;;;;;;;20.83;10.45;;;0.80;99.90;;;1.11;59.67;100200.16;5015705;28;20501;-86
2023/12/02 08:38:22;;;;;;;19.33;10.18;;;0.80;99.90;;;1.13;59.03;100207.91;5016931;28;20052;-85
2023/12/02 08:40:57;;;;;;;23.38;10.82;;;0.80;99.90;;;1.17;59.89;100206.59;5032789;28;20473;-86
2023/12/02 08:43:24;;;;;;;19.10;10.32;;;0.90;99.90;;;1.19;59.77;100212.53;5036893;28;20071;-85
2023/12/02 08:45:52;;;;;;;21.33;11.20;;;0.90;99.90;;;1.19;59.75;100218.59;5037019;28;20064;-86
2023/12/02 08:48:21;;;;;;;24.85;11.20;;;0.90;99.90;;;1.23;59.21;100224.38;5018166;28;20084;-86
2023/12/02 08:50:48;;;;;;;20.30;11.55;;;0.90;99.90;;;1.23;59.42;100227.81;5033906;28;20441;-86
2023/12/02 08:53:16;;;;;;;21.15;10.45;;;0.90;99.90;;;1.26;59.76;100229.28;4999485;28;20105;-85
2023/12/02 08:55:46;;;;;;;24.50;10.70;;;1.00;99.90;;;1.28;59.91;100232.59;5019085;28;20053;-86
2023/12/02 08:58:14;;;;;;;19.60;10.55;;;1.00;99.90;;;1.31;59.36;100226.19;5018899;28;20517;-86
2023/12/02 09:00:42;;;;;;;21.40;11.40;;;1.00;99.90;;;1.32;59.44;100235.72;5018765;28;20046;-86
2023/12/02 09:03:10;;;;;;;22.75;11.50;;;1.00;99.90;;;1.32;59.25;100238.34;5006852;28;20066;-85
2023/12/02 09:05:39;;;;;;;20.98;11.32;;;1.00;99.90;;;1.32;58.91;100241.81;5004882;28;20045;-85
2023/12/02 09:08:06;;;;;;;22.35;12.07;;;1.00;99.90;;;1.33;58.90;100237.38;5038946;28;20051;-85
2023/12/02 09:10:36;;;;;;;18.40;10.13;;;1.00;99.90;;;1.32;58.94;100239.19;5022208;28;20428;-85
2023/12/02 09:13:14;;;;;;;21.67;12.00;;;1.00;99.90;;;1.33;59.34;100247.88;5021564;28;20042;-84
2023/12/02 09:15:44;;;;;;;22.45;12.88;;;1.00;99.90;;;1.34;59.15;100250.34;5005423;28;20056;-85
2023/12/02 09:18:14;;;;;;;19.50;10.80;;;1.10;99.90;;;1.35;59.56;100252.00;5003400;28;20074;-85
2023/12/02 09:20:57;;;;;;;22.98;12.10;;;1.10;99.90;;;1.36;59.59;100256.25;5025528;28;20056;-84
2023/12/02 09:23:26;;;;;;;19.23;10.90;;;1.10;99.90;;;1.38;59.21;100262.19;5004535;28;20573;-85
2023/12/02 09:25:59;;;;;;;22.83;11.80;;;1.10;99.90;;;1.39;59.05;100255.97;5014954;28;20054;-85
2023/12/02 09:28:30;;;;;;;27.48;17.02;;;1.10;99.90;;;1.40;59.70;100249.72;5024079;28;20053;-84
2023/12/02 09:31:10;;;;;;;27.42;17.98;;;1.10;99.90;;;1.40;59.70;100257.59;5041751;28;20061;-84
2023/12/02 09:33:39;;;;;;;25.45;14.70;;;1.10;99.90;;;1.39;59.21;100257.75;5025877;28;20048;-84
2023/12/02 09:36:09;;;;;;;24.35;13.35;;;1.10;99.90;;;1.40;58.96;100254.16;5043227;28;20061;-84
2023/12/02 09:38:37;;;;;;;24.77;12.93;;;1.10;99.90;;;1.35;59.30;100262.50;5024502;28;20053;-84
2023/12/02 09:41:34;;;;;;;21.15;11.77;;;1.10;99.90;;;1.37;59.50;100257.94;5043128;28;20284;-84
2023/12/02 09:44:30;;;;;;;23.50;12.80;;;1.10;99.90;;;1.38;59.32;100246.44;5024723;28;20045;-85
2023/12/02 09:47:07;;;;;;;23.02;12.85;;;1.10;99.90;;;1.33;59.68;100255.78;5009253;28;20108;-84
2023/12/02 09:50:09;;;;;;;23.67;12.68;;;1.10;99.90;;;1.28;58.85;100251.81;5021310;28;20074;-85
2023/12/02 09:52:53;;;;;;;24.38;13.10;;;1.00;99.90;;;1.32;59.45;100257.56;5026821;28;20509;-85
2023/12/02 09:55:32;;;;;;;22.70;12.45;;;1.00;99.90;;;1.35;59.62;100259.88;5011154;28;20046;-85
2023/12/02 09:58:18;;;;;;;23.35;12.77;;;1.10;99.90;;;1.32;59.57;100262.84;5008705;28;20057;-84
2023/12/02 10:00:55;;;;;;;25.02;12.35;;;1.00;99.90;;;1.27;59.36;100263.31;5024603;28;20468;-87
2023/12/02 10:04:03;;;;;;;22.15;11.73;;;0.90;99.90;;;1.36;60.04;100261.50;5019870;28;20042;-89
2023/12/02 10:06:48;;;;;;;22.13;12.70;;;1.10;99.90;;;1.28;59.28;100257.06;4957052;29;20078;-90
2023/12/02 10:09:41;;;;;;;21.77;12.23;;;1.00;99.90;;;1.30;59.64;100264.78;5005677;28;20045;-88
2023/12/02 10:12:25;;;;;;;22.30;12.43;;;1.00;99.90;;;1.36;59.75;100268.56;5039419;28;20412;-87
2023/12/02 10:15:01;;;;;;;22.52;11.68;;;1.10;99.90;;;1.39;59.75;100263.84;5021061;28;20074;-86
2023/12/02 10:17:38;;;;;;;21.35;12.27;;;1.10;99.90;;;1.43;59.89;100254.66;5015936;28;20080;-86
2023/12/02 10:20:12;;;;;;;23.58;13.27;;;1.20;99.90;;;1.36;59.58;100258.88;4998007;28;20061;-85
2023/12/02 10:22:46;;;;;;;22.58;13.00;;;1.20;99.90;;;1.37;59.74;100263.19;5015744;28;20056;-86
2023/12/02 10:25:34;;;;;;;25.98;13.73;;;1.20;99.90;;;1.38;59.69;100272.72;5017253;28;20072;-85